createdAt,value
2022-11-24T00:00:50.665Z,2.95
2022-11-24T00:01:50.718Z,3.06
2022-11-24T00:02:52.065Z,3.06
2022-11-24T00:03:50.350Z,3.05
2022-11-24T00:04:50.869Z,3.11
2022-11-24T00:05:50.319Z,3.13
2022-11-24T00:06:50.421Z,3.19
2022-11-24T00:07:50.888Z,3.14
2022-11-24T00:08:50.897Z,3.14
2022-11-24T00:09:50.395Z,3.17
2022-11-24T00:10:50.601Z,3.13
2022-11-24T00:11:50.583Z,3.16
2022-11-24T00:12:50.572Z,3.2
2022-11-24T00:13:50.815Z,3.2
2022-11-24T00:14:50.554Z,3.17
2022-11-24T00:15:50.777Z,3.21
2022-11-24T00:16:51.088Z,3.2
2022-11-24T00:17:50.768Z,3.19
2022-11-24T00:18:50.766Z,3.23
2022-11-24T00:19:50.699Z,3.21
2022-11-24T00:20:50.702Z,3.23
2022-11-24T00:21:50.660Z,3.24
2022-11-24T00:22:50.654Z,3.26
2022-11-24T00:23:50.533Z,3.27
2022-11-24T00:24:50.104Z,3.17
2022-11-24T00:25:50.593Z,3.27
2022-11-24T00:26:50.330Z,3.26
2022-11-24T00:27:50.326Z,3.19
2022-11-24T00:28:50.277Z,3.32
2022-11-24T00:29:50.372Z,3.24
2022-11-24T00:30:50.461Z,3.23
2022-11-24T00:31:50.226Z,3.27
2022-11-24T00:32:50.472Z,3.32
2022-11-24T00:33:50.459Z,3.39
2022-11-24T00:34:50.483Z,3.32
2022-11-24T00:35:50.170Z,3.37
2022-11-24T00:36:50.163Z,3.35
2022-11-24T00:37:50.126Z,3.42
2022-11-24T00:38:50.370Z,3.45
2022-11-24T00:39:50.343Z,3.4
2022-11-24T00:40:49.815Z,3.46
2022-11-24T00:41:50.310Z,3.54
2022-11-24T00:42:50.187Z,3.48
2022-11-24T00:43:50.276Z,3.48
2022-11-24T00:44:49.743Z,3.53
2022-11-24T00:45:50.749Z,3.51
2022-11-24T00:46:50.614Z,3.51
2022-11-24T00:47:49.690Z,3.56
2022-11-24T00:48:49.933Z,3.57
2022-11-24T00:49:50.060Z,3.51
2022-11-24T00:50:50.203Z,3.53
2022-11-24T00:51:49.880Z,3.48
2022-11-24T00:52:50.140Z,3.49
2022-11-24T00:53:49.859Z,3.49
2022-11-24T00:54:49.922Z,3.53
2022-11-24T00:55:49.803Z,3.53
2022-11-24T00:56:49.788Z,3.6
2022-11-24T00:57:49.777Z,3.57
2022-11-24T00:58:49.763Z,3.56
2022-11-24T00:59:49.986Z,3.56
2022-11-24T01:00:49.466Z,3.63
2022-11-24T01:01:50.016Z,3.6
2022-11-24T01:02:49.663Z,3.64
2022-11-24T01:03:49.975Z,3.6
2022-11-24T01:04:49.803Z,3.61
2022-11-24T01:05:49.907Z,3.63
2022-11-24T01:06:50.078Z,3.56
2022-11-24T01:07:49.730Z,3.51
2022-11-24T01:08:50.015Z,3.58
2022-11-24T01:09:50.127Z,3.56
2022-11-24T01:10:49.694Z,3.57
2022-11-24T01:11:49.675Z,3.53
2022-11-24T01:12:49.668Z,3.6
2022-11-24T01:13:49.907Z,3.51
2022-11-24T01:14:49.477Z,3.58
2022-11-24T01:15:50.096Z,3.49
2022-11-24T01:16:49.590Z,3.46
2022-11-24T01:17:49.574Z,3.53
2022-11-24T01:18:49.560Z,3.46
2022-11-24T01:19:49.953Z,3.57
2022-11-24T01:20:49.770Z,3.57
2022-11-24T01:21:49.248Z,3.6
2022-11-24T01:22:49.541Z,3.54
2022-11-24T01:23:49.726Z,3.56
2022-11-24T01:24:49.730Z,3.6
2022-11-24T01:25:49.684Z,3.56
2022-11-24T01:26:49.417Z,3.51
2022-11-24T01:27:49.401Z,3.54
2022-11-24T01:28:52.474Z,3.51
2022-11-24T01:29:49.373Z,3.54
2022-11-24T01:30:49.534Z,3.51
2022-11-24T01:31:49.341Z,3.56
2022-11-24T01:32:49.318Z,3.56
2022-11-24T01:33:49.544Z,3.63
2022-11-24T01:34:49.630Z,3.54
2022-11-24T01:35:49.259Z,3.53
2022-11-24T01:36:48.985Z,3.64
2022-11-24T01:37:49.220Z,3.66
2022-11-24T01:38:49.515Z,3.66
2022-11-24T01:39:49.186Z,3.6
2022-11-24T01:40:49.442Z,3.63
2022-11-24T01:41:49.415Z,3.71
2022-11-24T01:42:49.398Z,3.64
2022-11-24T01:43:49.111Z,3.67
2022-11-24T01:44:49.276Z,3.57
2022-11-24T01:45:49.247Z,3.72
2022-11-24T01:46:49.071Z,3.66
2022-11-24T01:47:49.569Z,3.63
2022-11-24T01:48:49.026Z,3.66
2022-11-24T01:49:49.105Z,3.78
2022-11-24T01:50:48.995Z,3.71
2022-11-24T01:51:48.985Z,3.71
2022-11-24T01:52:49.204Z,3.66
2022-11-24T01:53:48.930Z,3.71
2022-11-24T01:54:49.387Z,3.61
2022-11-24T01:55:49.251Z,3.66
2022-11-24T01:56:48.906Z,3.67
2022-11-24T01:57:48.871Z,3.72
2022-11-24T01:58:48.848Z,3.69
2022-11-24T01:59:49.133Z,3.64
2022-11-24T02:00:49.068Z,3.74
2022-11-24T02:01:49.302Z,3.69
2022-11-24T02:02:49.264Z,3.74
2022-11-24T02:03:49.339Z,3.72
2022-11-24T02:04:49.985Z,3.69
2022-11-24T02:05:49.807Z,3.69
2022-11-24T02:06:49.282Z,3.71
2022-11-24T02:07:49.834Z,3.69
2022-11-24T02:08:49.247Z,3.71
2022-11-24T02:09:49.578Z,3.67
2022-11-24T02:10:49.516Z,3.56
2022-11-24T02:11:49.712Z,3.63
2022-11-24T02:12:49.716Z,3.56
2022-11-24T02:13:49.413Z,3.64
2022-11-24T02:14:49.544Z,3.51
2022-11-24T02:15:49.862Z,3.57
2022-11-24T02:16:49.370Z,3.57
2022-11-24T02:17:49.349Z,3.53
2022-11-24T02:18:49.329Z,3.57
2022-11-24T02:19:49.719Z,3.56
2022-11-24T02:20:49.302Z,3.46
2022-11-24T02:21:49.528Z,3.51
2022-11-24T02:22:49.252Z,3.49
2022-11-24T02:23:49.487Z,3.45
2022-11-24T02:24:49.374Z,3.51
2022-11-24T02:25:49.459Z,3.46
2022-11-24T02:26:49.489Z,3.46
2022-11-24T02:27:56.627Z,3.45
2022-11-24T02:28:49.428Z,3.45
2022-11-24T02:29:49.228Z,3.35
2022-11-24T02:30:49.276Z,3.48
2022-11-24T02:31:49.362Z,3.42
2022-11-24T02:32:49.329Z,3.42
2022-11-24T02:33:49.316Z,3.46
2022-11-24T02:34:49.141Z,3.48
2022-11-24T02:35:49.293Z,3.49
2022-11-24T02:36:49.015Z,3.42
2022-11-24T02:37:48.985Z,3.37
2022-11-24T02:38:48.714Z,3.4
2022-11-24T02:39:48.856Z,3.39
2022-11-24T02:40:49.190Z,3.42
2022-11-24T02:41:49.178Z,3.3
2022-11-24T02:42:49.196Z,3.4
2022-11-24T02:43:48.883Z,3.45
2022-11-24T02:44:48.996Z,3.39
2022-11-24T02:45:48.857Z,3.35
2022-11-24T02:46:48.927Z,3.35
2022-11-24T02:47:48.819Z,3.34
2022-11-24T02:48:48.806Z,3.34
2022-11-24T02:49:48.774Z,3.45
2022-11-24T02:50:49.005Z,3.45
2022-11-24T02:51:48.989Z,3.43
2022-11-24T02:52:48.720Z,3.43
2022-11-24T02:53:48.959Z,3.39
2022-11-24T02:54:48.840Z,3.4
2022-11-24T02:55:48.707Z,3.42
2022-11-24T02:56:48.904Z,3.43
2022-11-24T02:57:48.899Z,3.4
2022-11-24T02:58:48.916Z,3.34
2022-11-24T02:59:48.593Z,3.39
2022-11-24T03:00:48.859Z,3.34
2022-11-24T03:01:48.578Z,3.39
2022-11-24T03:02:49.005Z,3.29
2022-11-24T03:03:48.272Z,3.35
2022-11-24T03:04:48.613Z,3.32
2022-11-24T03:05:48.498Z,3.35
2022-11-24T03:06:48.487Z,3.34
2022-11-24T03:07:48.983Z,3.4
2022-11-24T03:08:48.434Z,3.27
2022-11-24T03:09:48.824Z,3.35
2022-11-24T03:10:48.410Z,3.34
2022-11-24T03:11:48.126Z,3.32
2022-11-24T03:12:48.624Z,3.3
2022-11-24T03:13:48.611Z,3.39
2022-11-24T03:14:48.534Z,3.39
2022-11-24T03:15:48.868Z,3.32
2022-11-24T03:16:48.334Z,3.3
2022-11-24T03:17:48.533Z,3.35
2022-11-24T03:18:48.256Z,3.48
2022-11-24T03:19:48.597Z,3.45
2022-11-24T03:20:48.489Z,3.4
2022-11-24T03:21:47.955Z,3.45
2022-11-24T03:22:48.433Z,3.37
2022-11-24T03:23:48.176Z,3.43
2022-11-24T03:24:48.410Z,3.43
2022-11-24T03:25:48.131Z,3.49
2022-11-24T03:26:48.375Z,3.46
2022-11-24T03:27:48.097Z,3.51
2022-11-24T03:28:47.835Z,3.48
2022-11-24T03:29:48.321Z,3.57
2022-11-24T03:30:48.323Z,3.56
2022-11-24T03:31:48.144Z,3.54
2022-11-24T03:32:48.037Z,3.56
2022-11-24T03:50:22.081Z,3.49
2022-11-24T03:51:21.732Z,3.57
2022-11-24T03:52:21.445Z,3.53
2022-11-24T03:53:21.439Z,3.56
2022-11-24T03:54:21.925Z,3.53
2022-11-24T03:55:21.641Z,3.57
2022-11-24T03:56:21.883Z,3.53
2022-11-24T03:57:21.603Z,3.48
2022-11-24T03:58:21.842Z,3.58
2022-11-24T03:59:21.317Z,3.49
2022-11-24T04:00:21.399Z,3.49
2022-11-24T04:01:21.952Z,3.51
2022-11-24T04:02:21.905Z,3.57
2022-11-24T04:03:21.501Z,3.57
2022-11-24T04:04:21.473Z,3.56
2022-11-24T04:05:21.709Z,3.58
2022-11-24T04:06:21.779Z,3.53
2022-11-24T04:07:21.517Z,3.54
2022-11-24T04:08:21.401Z,3.51
2022-11-24T04:09:21.631Z,3.48
2022-11-24T04:10:21.360Z,3.58
2022-11-24T04:11:21.351Z,3.58
2022-11-24T04:12:21.327Z,3.57
2022-11-24T04:13:21.557Z,3.58
2022-11-24T04:14:21.301Z,3.53
2022-11-24T04:15:21.532Z,3.57
2022-11-24T04:16:21.429Z,3.6
2022-11-24T04:17:21.262Z,3.64
2022-11-24T04:18:21.548Z,3.61
2022-11-24T04:19:21.198Z,3.57
2022-11-24T04:20:20.925Z,3.71
2022-11-24T04:21:21.168Z,3.61
2022-11-24T04:22:21.476Z,3.61
2022-11-24T04:23:21.140Z,3.76
2022-11-24T04:24:21.107Z,3.72
2022-11-24T04:25:21.501Z,3.64
2022-11-24T04:26:21.074Z,3.71
2022-11-24T04:27:21.323Z,3.64
2022-11-24T04:28:21.037Z,3.72
2022-11-24T04:29:21.273Z,3.71
2022-11-24T04:30:21.291Z,3.74
2022-11-24T04:31:21.395Z,3.66
2022-11-24T04:32:21.222Z,3.76
2022-11-24T04:33:21.267Z,3.79
2022-11-24T04:34:20.932Z,3.78
2022-11-24T04:35:21.527Z,3.84
2022-11-24T04:36:21.609Z,3.85
2022-11-24T04:37:21.844Z,3.86
2022-11-24T04:39:29.056Z,3.81
2022-11-24T04:39:38.924Z,3.84
2022-11-24T04:40:38.919Z,3.92
2022-11-24T04:41:38.631Z,3.86
2022-11-24T04:42:39.131Z,3.92
2022-11-24T04:43:44.967Z,3.94
2022-11-24T04:44:39.718Z,3.93
2022-11-24T04:45:39.236Z,3.97
2022-11-24T04:46:38.763Z,3.97
2022-11-24T04:47:39.051Z,3.94
2022-11-24T04:48:38.768Z,3.94
2022-11-24T04:49:38.743Z,3.99
2022-11-24T04:50:38.480Z,3.94
2022-11-24T04:51:38.969Z,3.89
2022-11-24T04:52:38.691Z,3.92
2022-11-24T04:53:38.954Z,4
2022-11-24T04:54:39.150Z,3.96
2022-11-24T04:55:39.045Z,4.03
2022-11-24T04:56:38.894Z,4.02
2022-11-24T04:57:38.862Z,3.93
2022-11-24T04:58:39.860Z,3.94
2022-11-24T04:59:38.575Z,3.96
2022-11-24T05:00:38.652Z,4.02
2022-11-24T05:01:38.478Z,3.99
2022-11-24T05:02:38.524Z,3.99
2022-11-24T05:03:38.751Z,4
2022-11-24T05:04:39.774Z,3.94
2022-11-24T05:05:38.564Z,4.03
2022-11-24T05:06:38.455Z,4.07
2022-11-24T05:07:38.892Z,4.07
2022-11-24T05:08:38.414Z,4.11
2022-11-24T05:10:03.264Z,4.08
2022-11-24T05:10:38.485Z,4.21
2022-11-24T05:11:38.622Z,4.17
2022-11-24T05:12:38.354Z,4.17
2022-11-24T05:13:38.321Z,4.21
2022-11-24T05:14:39.000Z,4.17
2022-11-24T05:15:38.452Z,4.18
2022-11-24T05:16:38.732Z,4.28
2022-11-24T05:17:38.005Z,4.14
2022-11-24T05:18:38.247Z,4.3
2022-11-24T05:19:38.617Z,4.17
2022-11-24T05:20:38.224Z,4.24
2022-11-24T05:21:37.930Z,4.3
2022-11-24T05:22:38.176Z,4.29
2022-11-24T05:23:38.418Z,4.24
2022-11-24T05:24:38.527Z,4.28
2022-11-24T05:25:39.718Z,4.28
2022-11-24T05:26:38.026Z,4.28
2022-11-24T05:27:38.341Z,4.36
2022-11-24T05:28:38.332Z,4.33
2022-11-24T05:32:05.248Z,4.39
2022-11-24T05:32:35.568Z,4.42
2022-11-24T05:33:36.094Z,4.4
2022-11-24T05:34:36.501Z,4.4
2022-11-24T05:35:35.252Z,4.4
2022-11-24T05:36:35.760Z,4.48
2022-11-24T05:37:35.477Z,4.5
2022-11-24T05:38:35.714Z,4.53
2022-11-24T05:39:35.448Z,4.51
2022-11-24T05:40:35.430Z,4.57
2022-11-24T05:41:35.737Z,4.56
2022-11-24T05:42:35.650Z,4.58
2022-11-24T05:43:35.375Z,4.61
2022-11-24T05:44:35.958Z,4.68
2022-11-24T05:45:35.340Z,4.68
2022-11-24T05:46:35.483Z,4.69
2022-11-24T05:47:35.667Z,4.72
2022-11-24T05:48:35.034Z,4.71
2022-11-24T05:49:35.530Z,4.71
2022-11-24T05:50:35.263Z,4.75
2022-11-24T05:51:34.981Z,4.75
2022-11-24T05:52:35.484Z,4.79
2022-11-24T05:53:34.958Z,4.84
2022-11-24T05:54:35.776Z,4.75
2022-11-24T05:55:34.916Z,4.74
2022-11-24T05:56:35.402Z,4.72
2022-11-24T05:57:35.482Z,4.72
2022-11-24T05:58:35.385Z,4.68
2022-11-24T05:59:34.851Z,4.76
2022-11-24T06:00:35.353Z,4.69
2022-11-24T06:01:35.505Z,4.61
2022-11-24T06:02:35.728Z,4.6
2022-11-24T06:03:34.786Z,4.65
2022-11-24T06:04:35.970Z,4.51
2022-11-24T06:05:35.061Z,4.6
2022-11-24T06:06:35.240Z,4.58
2022-11-24T06:07:35.212Z,4.46
2022-11-24T06:08:36.397Z,4.61
2022-11-24T06:09:34.682Z,4.58
2022-11-24T06:10:35.291Z,4.58
2022-11-24T06:11:34.913Z,4.64
2022-11-24T06:12:34.887Z,4.66
2022-11-24T06:13:35.645Z,4.68
2022-11-24T06:14:35.295Z,4.76
2022-11-24T06:15:34.839Z,4.68
2022-11-24T06:16:35.235Z,4.68
2022-11-24T06:17:34.807Z,4.64
2022-11-24T06:18:34.790Z,4.64
2022-11-24T06:19:38.681Z,4.75
2022-11-24T06:20:37.333Z,4.68
2022-11-24T06:21:34.992Z,4.69
2022-11-24T06:22:34.717Z,4.69
2022-11-24T06:23:34.708Z,4.72
2022-11-24T06:24:35.521Z,4.65
2022-11-24T06:25:34.674Z,4.69
2022-11-24T06:26:34.680Z,4.61
2022-11-24T06:27:34.382Z,4.64
2022-11-24T06:28:34.616Z,4.66
2022-11-24T06:29:35.031Z,4.68
2022-11-24T06:30:34.855Z,4.64
2022-11-24T06:31:34.755Z,4.68
2022-11-24T06:32:34.554Z,4.61
2022-11-24T06:33:34.546Z,4.65
2022-11-24T06:34:35.522Z,4.66
2022-11-24T06:35:34.502Z,4.53
2022-11-24T06:36:34.485Z,4.53
2022-11-24T06:37:34.478Z,4.51
2022-11-24T06:38:34.455Z,4.6
2022-11-24T06:39:34.445Z,4.6
2022-11-24T06:40:34.422Z,4.65
2022-11-24T06:41:34.149Z,4.65
2022-11-24T06:42:34.643Z,4.64
2022-11-24T06:43:34.116Z,4.64
2022-11-24T06:44:35.504Z,4.61
2022-11-24T06:45:34.866Z,4.65
2022-11-24T06:46:34.341Z,4.64
2022-11-24T06:47:34.311Z,4.6
2022-11-24T06:48:34.314Z,4.64
2022-11-24T06:49:34.271Z,4.6
2022-11-24T06:50:38.294Z,4.58
2022-11-24T06:51:34.234Z,4.68
2022-11-24T06:52:34.475Z,4.71
2022-11-24T06:53:34.232Z,4.61
2022-11-24T06:54:35.016Z,4.65
2022-11-24T06:55:34.426Z,4.68
2022-11-24T06:56:34.159Z,4.71
2022-11-24T06:57:34.397Z,4.69
2022-11-24T06:58:33.868Z,4.65
2022-11-24T06:59:34.109Z,4.74
2022-11-24T07:00:34.438Z,4.79
2022-11-24T07:01:34.588Z,4.83
2022-11-24T07:02:34.117Z,4.75
2022-11-24T07:03:34.493Z,4.76
2022-11-24T07:04:34.927Z,4.75
2022-11-24T07:05:34.006Z,4.87
2022-11-24T07:06:33.996Z,4.79
2022-11-24T07:07:34.371Z,4.87
2022-11-24T07:08:34.202Z,4.87
2022-11-24T07:09:33.939Z,4.85
2022-11-24T07:10:34.351Z,4.87
2022-11-24T07:11:33.665Z,4.87
2022-11-24T07:12:33.888Z,4.88
2022-11-24T07:13:34.125Z,4.85
2022-11-24T07:14:34.506Z,4.83
2022-11-24T07:15:34.087Z,4.94
2022-11-24T07:16:34.420Z,4.87
2022-11-24T07:17:34.138Z,4.9
2022-11-24T07:18:33.793Z,4.95
2022-11-24T07:19:33.777Z,4.91
2022-11-24T07:20:33.830Z,4.9
2022-11-24T07:21:33.525Z,4.97
2022-11-24T07:22:33.974Z,4.98
2022-11-24T07:23:33.954Z,4.94
2022-11-24T07:24:34.196Z,4.95
2022-11-24T07:25:33.676Z,4.91
2022-11-24T07:26:33.925Z,5
2022-11-24T07:27:33.639Z,5.09
2022-11-24T07:28:33.908Z,5.05
2022-11-24T07:29:33.612Z,5
2022-11-24T07:30:33.502Z,5.06
2022-11-24T07:31:34.122Z,5.12
2022-11-24T07:32:33.811Z,5.18
2022-11-24T07:33:33.880Z,5.15
2022-11-24T07:34:33.738Z,5.23
2022-11-24T07:35:33.757Z,5.12
2022-11-24T07:36:33.746Z,5.2
2022-11-24T07:37:36.662Z,5.16
2022-11-24T07:38:33.461Z,5.18
2022-11-24T07:39:33.695Z,5.23
2022-11-24T07:40:33.678Z,5.12
2022-11-24T07:41:33.663Z,5.23
2022-11-24T07:42:33.443Z,5.21
2022-11-24T07:43:33.628Z,5.23
2022-11-24T07:44:33.614Z,5.3
2022-11-24T07:45:33.826Z,5.23
2022-11-24T07:46:33.612Z,5.23
2022-11-24T07:47:33.600Z,5.34
2022-11-24T07:48:33.554Z,5.36
2022-11-24T07:49:33.626Z,5.33
2022-11-24T07:50:33.506Z,5.41
2022-11-24T07:51:33.243Z,5.41
2022-11-24T07:52:33.494Z,5.39
2022-11-24T07:53:33.468Z,5.45
2022-11-24T07:54:33.575Z,5.37
2022-11-24T07:55:33.430Z,5.37
2022-11-24T07:56:33.156Z,5.45
2022-11-24T07:57:33.155Z,5.48
2022-11-24T07:58:37.413Z,5.45
2022-11-24T07:59:33.361Z,5.46
2022-11-24T08:00:33.113Z,5.54
2022-11-24T08:01:33.222Z,5.59
2022-11-24T08:02:33.065Z,5.59
2022-11-24T08:03:33.574Z,5.62
2022-11-24T08:04:33.564Z,5.63
2022-11-24T08:05:33.351Z,5.63
2022-11-24T08:06:47.423Z,5.69
2022-11-24T08:07:33.033Z,5.62
2022-11-24T08:08:33.245Z,5.77
2022-11-24T08:09:32.960Z,5.78
2022-11-24T08:10:33.188Z,5.82
2022-11-24T08:11:32.924Z,5.77
2022-11-24T08:12:32.900Z,5.77
2022-11-24T08:13:33.152Z,5.87
2022-11-24T08:14:33.354Z,5.91
2022-11-24T08:15:33.112Z,5.88
2022-11-24T08:16:33.073Z,5.98
2022-11-24T08:17:32.564Z,5.98
2022-11-24T08:18:33.065Z,5.89
2022-11-24T08:19:33.039Z,5.88
2022-11-24T08:20:33.024Z,5.92
2022-11-24T08:21:33.098Z,5.95
2022-11-24T08:22:33.007Z,5.91
2022-11-24T08:23:32.726Z,6
2022-11-24T08:24:32.923Z,5.98
2022-11-24T08:25:32.943Z,5.99
2022-11-24T08:26:32.929Z,5.98
2022-11-24T08:27:32.926Z,6.02
2022-11-24T08:28:32.395Z,5.95
2022-11-24T08:29:32.885Z,5.98
2022-11-24T08:30:32.633Z,6.02
2022-11-24T08:31:33.745Z,6.05
2022-11-24T08:32:32.894Z,6.06
2022-11-24T08:33:32.561Z,6.09
2022-11-24T08:34:33.181Z,6.06
2022-11-24T08:35:32.783Z,6.13
2022-11-24T08:36:32.766Z,6.17
2022-11-24T08:37:32.839Z,6.21
2022-11-24T08:38:32.742Z,6.15
2022-11-24T08:39:32.487Z,6.28
2022-11-24T08:40:32.448Z,6.33
2022-11-24T08:41:32.726Z,6.26
2022-11-24T08:42:32.677Z,6.42
2022-11-24T08:43:32.159Z,6.47
2022-11-24T08:44:32.971Z,6.47
2022-11-24T08:45:42.280Z,6.44
2022-11-24T08:46:32.407Z,6.49
2022-11-24T08:47:32.624Z,6.49
2022-11-24T08:48:32.218Z,6.51
2022-11-24T08:49:32.368Z,6.55
2022-11-24T08:50:32.323Z,6.58
2022-11-24T08:51:32.297Z,6.61
2022-11-24T08:52:32.515Z,6.7
2022-11-24T08:53:32.811Z,6.61
2022-11-24T08:54:32.394Z,6.75
2022-11-24T08:55:32.477Z,6.78
2022-11-24T08:56:32.221Z,6.79
2022-11-24T08:57:32.190Z,6.8
2022-11-24T08:58:32.325Z,6.83
2022-11-24T08:59:32.453Z,6.85
2022-11-24T09:00:32.411Z,6.94
2022-11-24T09:01:32.380Z,6.94
2022-11-24T09:02:32.368Z,6.85
2022-11-24T09:03:32.257Z,6.95
2022-11-24T09:04:32.795Z,6.95
2022-11-24T09:06:02.347Z,7.01
2022-11-24T09:06:32.298Z,7.08
2022-11-24T09:07:32.236Z,6.98
2022-11-24T09:08:32.140Z,7.09
2022-11-24T09:09:32.340Z,7.01
2022-11-24T09:10:32.259Z,7.12
2022-11-24T09:11:31.982Z,6.98
2022-11-24T09:12:32.216Z,7
2022-11-24T09:13:32.056Z,6.83
2022-11-24T09:14:33.410Z,6.98
2022-11-24T09:15:33.162Z,6.9
2022-11-24T09:16:32.847Z,6.93
2022-11-24T09:17:32.881Z,6.9
2022-11-24T09:18:35.055Z,6.83
2022-11-24T09:19:33.077Z,6.86
2022-11-24T09:20:33.089Z,6.79
2022-11-24T09:21:32.828Z,6.72
2022-11-24T09:22:33.055Z,6.68
2022-11-24T09:23:33.069Z,6.7
2022-11-24T09:24:33.040Z,6.7
2022-11-24T09:25:33.089Z,6.68
2022-11-24T09:26:32.742Z,6.72
2022-11-24T09:27:32.735Z,6.8
2022-11-24T09:28:32.713Z,6.83
2022-11-24T09:29:33.025Z,6.93
2022-11-24T09:30:33.063Z,7
2022-11-24T09:31:32.924Z,6.98
2022-11-24T09:32:33.028Z,7.08
2022-11-24T09:33:32.884Z,7.16
2022-11-24T09:34:32.374Z,7.13
2022-11-24T09:35:32.880Z,7.22
2022-11-24T09:36:32.585Z,7.23
2022-11-24T09:37:37.074Z,7.22
2022-11-24T09:38:32.556Z,7.23
2022-11-24T09:39:33.130Z,7.22
2022-11-24T09:40:32.536Z,7.27
2022-11-24T09:41:32.973Z,7.23
2022-11-24T09:42:32.711Z,7.34
2022-11-24T09:43:32.487Z,7.33
2022-11-24T09:44:32.476Z,7.36
2022-11-24T09:46:09.555Z,7.47
2022-11-24T09:46:32.596Z,7.51
2022-11-24T09:47:32.706Z,7.4
2022-11-24T09:48:32.669Z,7.45
2022-11-24T09:49:32.540Z,7.4
2022-11-24T09:50:32.378Z,7.4
2022-11-24T09:51:32.622Z,7.45
2022-11-24T09:52:32.097Z,7.49
2022-11-24T09:53:32.333Z,7.49
2022-11-24T09:54:32.321Z,7.47
2022-11-24T09:55:32.568Z,7.55
2022-11-24T09:56:32.313Z,7.59
2022-11-24T09:57:39.916Z,7.58
2022-11-24T09:58:32.009Z,7.67
2022-11-24T09:59:32.797Z,7.58
2022-11-24T10:00:32.250Z,7.55
2022-11-24T10:01:32.225Z,7.61
2022-11-24T10:02:32.197Z,7.58
2022-11-24T10:03:32.447Z,7.56
2022-11-24T10:04:32.592Z,7.59
2022-11-24T10:05:32.421Z,7.67
2022-11-24T10:06:32.400Z,7.58
2022-11-24T10:07:32.228Z,7.59
2022-11-24T10:08:32.129Z,7.59
2022-11-24T10:09:32.781Z,7.58
2022-11-24T10:10:32.425Z,7.67
2022-11-24T10:11:32.128Z,7.58
2022-11-24T10:12:32.324Z,7.77
2022-11-24T10:13:32.393Z,7.75
2022-11-24T10:14:32.059Z,7.91
2022-11-24T10:15:32.165Z,7.83
2022-11-24T10:16:32.601Z,7.85
2022-11-24T10:17:32.252Z,7.85
2022-11-24T10:18:31.968Z,7.93
2022-11-24T10:19:42.095Z,7.95
2022-11-24T10:20:31.945Z,7.99
2022-11-24T10:21:31.977Z,7.92
2022-11-24T10:22:32.221Z,7.99
2022-11-24T10:23:35.763Z,7.98
2022-11-24T10:24:31.897Z,7.95
2022-11-24T10:25:32.144Z,8.03
2022-11-24T10:26:32.113Z,8.07
2022-11-24T10:27:31.592Z,8.21
2022-11-24T10:28:32.095Z,8.28
2022-11-24T10:29:32.418Z,8.31
2022-11-24T10:30:31.815Z,8.46
2022-11-24T10:31:32.111Z,8.52
2022-11-24T10:32:31.792Z,8.44
2022-11-24T10:33:35.284Z,8.49
2022-11-24T10:34:32.001Z,8.42
2022-11-24T10:35:31.735Z,8.52
2022-11-24T10:36:31.723Z,8.52
2022-11-24T10:37:31.973Z,8.36
2022-11-24T10:38:31.690Z,8.46
2022-11-24T10:39:31.879Z,8.44
2022-11-24T10:41:00.871Z,8.47
2022-11-24T10:41:31.421Z,8.39
2022-11-24T10:42:31.636Z,8.34
2022-11-24T10:43:31.894Z,8.25
2022-11-24T10:44:31.609Z,8.22
2022-11-24T10:45:31.927Z,8.22
2022-11-24T10:46:39.402Z,8.11
2022-11-24T10:47:31.566Z,8.1
2022-11-24T10:48:31.807Z,8.04
2022-11-24T10:49:31.960Z,7.96
2022-11-24T10:50:31.789Z,7.96
2022-11-24T10:51:31.602Z,7.91
2022-11-24T10:52:31.756Z,7.96
2022-11-24T10:53:31.490Z,7.96
2022-11-24T10:54:31.466Z,7.99
2022-11-24T10:55:31.703Z,7.99
2022-11-24T10:56:31.442Z,8.03
2022-11-24T10:57:31.680Z,7.95
2022-11-24T10:58:38.649Z,8.01
2022-11-24T10:59:31.402Z,7.86
2022-11-24T11:00:31.637Z,7.91
2022-11-24T11:01:32.055Z,7.85
2022-11-24T11:02:31.433Z,7.85
2022-11-24T11:03:31.590Z,7.78
2022-11-24T11:04:31.591Z,7.86
2022-11-24T11:05:31.593Z,7.86
2022-11-24T11:06:31.303Z,7.86
2022-11-24T11:07:31.457Z,7.8
2022-11-24T11:08:31.305Z,7.74
2022-11-24T11:09:31.350Z,7.83
2022-11-24T11:10:31.501Z,7.86
2022-11-24T11:11:31.488Z,7.77
2022-11-24T11:13:01.474Z,7.86
2022-11-24T11:13:31.189Z,7.93
2022-11-24T11:14:31.439Z,7.78
2022-11-24T11:15:31.909Z,7.93
2022-11-24T11:16:31.596Z,7.89
2022-11-24T11:17:31.481Z,7.86
2022-11-24T11:18:31.398Z,7.91
2022-11-24T11:20:00.225Z,7.95
2022-11-24T11:20:31.102Z,7.93
2022-11-24T11:21:31.099Z,7.96
2022-11-24T11:22:31.094Z,7.95
2022-11-24T11:23:31.058Z,8.01
2022-11-24T11:24:31.047Z,7.91
2022-11-24T11:25:31.030Z,7.92
2022-11-24T11:26:31.261Z,7.88
2022-11-24T11:27:30.993Z,7.92
2022-11-24T11:28:31.247Z,7.86
2022-11-24T11:31:28.933Z,7.89
2022-11-24T11:34:32.473Z,7.98
2022-11-24T11:35:17.354Z,8.04
2022-11-24T11:36:17.342Z,8.06
2022-11-24T11:37:17.069Z,8.11
2022-11-24T11:38:17.305Z,8.16
2022-11-24T11:39:17.040Z,8.24
2022-11-24T11:40:17.541Z,8.24
2022-11-24T11:41:17.257Z,8.17
2022-11-24T11:43:05.955Z,8.25
2022-11-24T11:43:16.977Z,8.34
2022-11-24T11:44:16.960Z,8.28
2022-11-24T11:45:17.058Z,8.21
2022-11-24T11:46:17.737Z,8.26
2022-11-24T11:47:17.109Z,8.31
2022-11-24T11:48:17.189Z,8.25
2022-11-24T11:49:17.271Z,8.22
2022-11-24T11:50:17.647Z,8.19
2022-11-24T11:51:28.560Z,8.24
2022-11-24T11:52:17.444Z,8.21
2022-11-24T11:53:17.434Z,8.17
2022-11-24T11:54:17.198Z,8.17
2022-11-24T11:55:17.404Z,8.16
2022-11-24T11:56:16.882Z,8.26
2022-11-24T11:57:17.121Z,8.19
2022-11-24T11:58:17.100Z,8.24
2022-11-24T11:59:17.446Z,8.32
2022-11-24T12:00:17.450Z,8.29
2022-11-24T12:01:16.810Z,8.42
2022-11-24T12:02:17.520Z,8.53
2022-11-24T12:03:17.269Z,8.61
2022-11-24T12:04:17.668Z,8.61
2022-11-24T12:05:17.324Z,8.68
2022-11-24T12:06:17.283Z,8.71
2022-11-24T12:07:17.455Z,8.72
2022-11-24T12:08:24.116Z,8.72
2022-11-24T12:09:25.461Z,8.82
2022-11-24T12:10:17.659Z,8.76
2022-11-24T12:11:17.886Z,8.68
2022-11-24T12:12:17.617Z,8.79
2022-11-24T12:13:17.848Z,8.82
2022-11-24T12:14:17.594Z,8.72
2022-11-24T12:15:17.578Z,8.71
2022-11-24T12:16:18.050Z,8.74
2022-11-24T12:17:17.539Z,8.77
2022-11-24T12:19:00.415Z,8.77
2022-11-24T12:19:17.519Z,8.71
2022-11-24T12:20:17.813Z,8.71
2022-11-24T12:21:21.490Z,8.76
2022-11-24T12:22:17.494Z,8.74
2022-11-24T12:23:17.209Z,8.69
2022-11-24T12:24:17.768Z,8.74
2022-11-24T12:25:17.427Z,8.69
2022-11-24T12:26:17.668Z,8.77
2022-11-24T12:27:25.549Z,8.74
2022-11-24T12:28:17.141Z,8.76
2022-11-24T12:29:17.634Z,8.67
2022-11-24T12:30:17.799Z,8.67
2022-11-24T12:31:17.822Z,8.68
2022-11-24T12:32:17.892Z,8.65
2022-11-24T12:33:17.599Z,8.57
2022-11-24T12:34:17.585Z,8.53
2022-11-24T12:35:17.568Z,8.53
2022-11-24T12:36:17.332Z,8.52
2022-11-24T12:37:17.328Z,8.52
2022-11-24T12:38:17.551Z,8.43
2022-11-24T12:39:17.083Z,8.36
2022-11-24T12:40:17.281Z,8.36
2022-11-24T12:41:45.159Z,8.35
2022-11-24T12:42:17.225Z,8.43
2022-11-24T12:43:17.219Z,8.34
2022-11-24T12:44:17.459Z,8.28
2022-11-24T12:45:17.482Z,8.32
2022-11-24T12:46:22.394Z,8.35
2022-11-24T12:47:17.433Z,8.31
2022-11-24T12:48:17.403Z,8.36
2022-11-24T12:49:17.128Z,8.35
2022-11-24T12:50:17.136Z,8.25
2022-11-24T12:51:17.352Z,8.32
2022-11-24T12:52:17.392Z,8.31
2022-11-24T12:53:17.367Z,8.25
2022-11-24T12:54:17.340Z,8.22
2022-11-24T12:55:17.307Z,8.22
2022-11-24T12:56:17.039Z,8.16
2022-11-24T12:57:17.281Z,8.16
2022-11-24T12:58:17.272Z,8.26
2022-11-24T12:59:17.243Z,8.13
2022-11-24T13:00:16.983Z,8.24
2022-11-24T13:01:21.655Z,8.19
2022-11-24T13:02:17.467Z,8.19
2022-11-24T13:03:17.263Z,8.24
2022-11-24T13:04:16.925Z,8.21
2022-11-24T13:05:17.172Z,8.25
2022-11-24T13:06:17.144Z,8.29
2022-11-24T13:07:16.842Z,8.21
2022-11-24T13:08:17.149Z,8.19
2022-11-24T13:09:16.894Z,8.17
2022-11-24T13:10:16.865Z,8.13
2022-11-24T13:24:18.972Z,8.11
2022-11-24T13:25:18.566Z,8.09
2022-11-24T13:26:18.284Z,8.03
2022-11-24T13:27:18.647Z,8.07
2022-11-24T13:28:33.572Z,8.03
2022-11-24T13:29:30.152Z,8.07
2022-11-24T13:30:28.698Z,8.07
2022-11-24T13:31:29.286Z,8.01
2022-11-24T13:32:29.145Z,8.09
2022-11-24T13:33:31.971Z,8.09
2022-11-24T13:34:29.119Z,8.07
2022-11-24T13:35:29.103Z,8.04
2022-11-24T13:36:29.085Z,8.04
2022-11-24T13:37:39.351Z,8.06
2022-11-24T13:38:29.062Z,8.04
2022-11-24T13:39:29.072Z,8.01
2022-11-24T13:40:28.587Z,8.06
2022-11-24T13:41:33.582Z,8.03
2022-11-24T13:42:48.356Z,7.98
2022-11-24T13:43:28.748Z,7.91
2022-11-24T13:44:28.984Z,8.01
2022-11-24T13:45:28.702Z,7.95
2022-11-24T13:46:29.165Z,7.96
2022-11-24T13:47:28.687Z,7.91
2022-11-24T13:48:28.663Z,7.8
2022-11-24T13:49:28.902Z,7.83
2022-11-24T13:50:28.633Z,7.7
2022-11-24T13:51:28.628Z,7.68
2022-11-24T13:52:29.355Z,7.58
2022-11-24T13:53:29.091Z,7.58
2022-11-24T13:54:29.075Z,7.59
2022-11-24T13:55:29.084Z,7.58
2022-11-24T13:56:29.079Z,7.64